CCGS Sir Wilfrid Laurier — CGJK — position and weather

sailwx.info

Track history (hours):
 
Tides and Currents Weather Stations Pressure Air Temp Water Temp Dewpoint Dewpoint Depression Visibility Wind Speed Wind Dir Waves Ship Positions

Oceanographic research ship CCGS Sir Wilfrid Laurier (Canada)

Detailed information on ship capabilities available from ARCUS's ALIAS (Arctic Logistics Information and Support) project.

Last reported at 2014-Nov-21 11:31 UTC. Time now 2014-Nov-21 12:21 UTC.
Position N 48°25' W 123°23'.

Length 83 m; beam 16.2 m; draft 6 m.

Type: SAR. MMSI: 316052000.

Date/timePositionNaut miles runAvg speedWind from/ knotsBaromVisibWave heightAir tempDewpointWater temp
2014-Nov-21 11:31N 48°25' W 123°23'0 0.0
2014-Nov-21 10:13N 48°25' W 123°23'0 0.0
2014-Nov-21 09:31N 48°25' W 123°23'0 0.0
2014-Nov-21 08:31N 48°25' W 123°23'0 0.0
2014-Nov-21 07:31N 48°25' W 123°23'0 0.0
2014-Nov-21 06:31N 48°25' W 123°23'1 2.5
2014-Nov-21 06:00N 48°24' W 123°24'1 2.7 360 / 41011.9 9.5 9.4
2014-Nov-21 05:31N 48°25' W 123°23'0 0.0
2014-Nov-21 04:31N 48°25' W 123°23'0 0.0
2014-Nov-21 03:19N 48°25' W 123°23'1 0.4
2014-Nov-21 00:00N 48°24' W 123°24'1 0.5 100 / 11013.2 10.1 9.0
2014-Nov-20 21:25N 48°25' W 123°23'0 0.0
2014-Nov-20 19:31N 48°25' W 123°23'0 0.0
2014-Nov-20 18:13N 48°25' W 123°23'1 5.8
2014-Nov-20 18:00N 48°24' W 123°24'1 2.7 110 / 31013.9 8.6 7.4
2014-Nov-20 17:31N 48°25' W 123°23'0 0.0
2014-Nov-20 15:07N 48°25' W 123°23'0 0.0
2014-Nov-20 14:25N 48°25' W 123°23'0 0.0
2014-Nov-20 13:25N 48°25' W 123°23'0 0.0
2014-Nov-20 12:31N 48°25' W 123°23'1 2.5
2014-Nov-20 12:00N 48°24' W 123°24'1 2.7 010 / 31011.1 8.1 5.8
2014-Nov-20 11:31N 48°25' W 123°23'0 0.0
2014-Nov-20 10:31N 48°25' W 123°23'0 0.0
2014-Nov-20 09:31N 48°25' W 123°23'1 0.4
2014-Nov-20 06:00N 48°24' W 123°24'0 0.0 010 / 51009.4 8.7 6.4
2014-Nov-20 00:00N 48°24' W 123°24'0 0.0 020 / 81010.4 10.5 3.7
2014-Nov-19 18:00N 48°24' W 123°24'0 0.0 020 / 81015.0 9.0 3.3
2014-Nov-19 12:00N 48°24' W 123°24'0 0.0 010 / 41017.7 7.0 3.6
2014-Nov-19 06:00N 48°24' W 123°24'0 0.0 010 / 51018.7 6.8 4.0
2014-Nov-19 00:00N 48°24' W 123°24'1 0.7 030 / 41019.9 9.0 4.2
2014-Nov-18 22:10N 48°25' W 123°23'1 0.3
2014-Nov-18 18:00N 48°24' W 123°24'1 0.8 010 / 71021.2 7.1 4.3
2014-Nov-18 16:25N 48°25' W 123°23'1 0.5
2014-Nov-18 14:00N 48°24' W 123°24'0 0.0 030 / 41020.8 4.4 1.3
2014-Nov-18 13:00N 48°24' W 123°24'0 0.0 010 / 51021.1 4.1 0.3
2014-Nov-18 12:00N 48°24' W 123°24'0 0.0 010 / 41021.3 4.3 0.5
2014-Nov-18 11:00N 48°24' W 123°24'0 0.0 360 / 21021.7 3.8 0.3
2014-Nov-18 10:00N 48°24' W 123°24'0 0.0 010 / 61021.9 3.4 0.4
2014-Nov-18 09:00N 48°24' W 123°24'0 0.0 020 / 61022.3 4.5 1.4
2014-Nov-18 08:00N 48°24' W 123°24'0 0.0 010 / 41023.0 4.3 0.9
2014-Nov-18 07:00N 48°24' W 123°24'0 0.0 010 / 51023.1 4.5 1.3
2014-Nov-18 06:00N 48°24' W 123°24'0 0.0 010 / 61023.7 4.8 1.610.2
2014-Nov-18 05:00N 48°24' W 123°24'1 1.5 020 / 51023.8 5.7 2.310.2
2014-Nov-18 04:07N 48°25' W 123°23'110.2
2014-Nov-18 04:00N 48°24' W 123°24'2 3.7 020 / 61024.1 5.8 2.110.3
2014-Nov-18 03:34N 48°23' W 123°26'610.0
2014-Nov-18 03:00N 48°18' W 123°30'4 8.8 060 / 81024.3 7.6 2.310.5
2014-Nov-18 02:33N 48°18' W 123°36'4 7.4
2014-Nov-18 02:00N 48°18' W 123°42'715.1 110 / 121024.0 8.3 2.510.5
2014-Nov-18 01:34N 48°20' W 123°51'4 7.3
2014-Nov-18 01:00N 48°24' W 123°54'817.8 130 / 181024.0 8.6 1.810.4
2014-Nov-18 00:33N 48°24' W 124°06'4 7.6
2014-Nov-18 00:00N 48°24' W 124°12'613.2 130 / 161024.7 8.4 3.010.6
2014-Nov-17 23:34N 48°27' W 124°19'4 7.5
2014-Nov-17 23:00N 48°30' W 124°24'614.7 120 / 201024.3 8.3 3.310.9
2014-Nov-17 22:33N 48°31' W 124°34'713.0
2014-Nov-17 22:00N 48°36' W 124°42'4 9.3 110 / 271023.8 8.6 3.812.6
2014-Nov-17 21:33N 48°35' W 124°48'4 7.1
2014-Nov-17 21:00N 48°36' W 124°54'715.5 120 / 271024.2 8.7 4.512.5
2014-Nov-17 20:34N 48°40' W 125°02'3 5.7
2014-Nov-17 20:00N 48°42' W 125°06'2 3.9 120 / 231025.6 9.2 3.812.2
2014-Nov-17 19:34N 48°42' W 125°09'2 4.1
2014-Nov-17 19:00N 48°42' W 125°12'4 9.0 110 / 221025.7 8.6 3.112.3
2014-Nov-17 18:33N 48°45' W 125°15'3 5.9
2014-Nov-17 18:00N 48°48' W 125°12'4 8.1 110 / 41027.1 5.9-0.912.1
2014-Nov-17 17:34N 48°51' W 125°08'3 5.3
2014-Nov-17 17:00N 48°48' W 125°06'3 7.4 170 / 41027.0 2.5-0.212.1
2014-Nov-17 16:34N 48°51' W 125°08'4 7.1
2014-Nov-17 16:00N 48°54' W 125°12'4 9.1 090 / 81026.7 6.4-1.610.8
2014-Nov-17 15:33N 48°57' W 125°16'3 2.5
2014-Nov-17 14:31N 48°59' W 125°19'0 0.0
2014-Nov-17 13:31N 48°59' W 125°19'5 9.2
2014-Nov-17 13:00N 48°54' W 125°18'510.1 030 / 11028.1 3.2 0.5
2014-Nov-17 12:31N 48°59' W 125°19'5 9.1
2014-Nov-17 12:00N 48°54' W 125°18'510.1 010 / 31027.7 3.5 1.6
2014-Nov-17 11:31N 48°59' W 125°19'5 9.2
2014-Nov-17 11:00N 48°54' W 125°18'510.1 010 / 31027.9 3.3 1.2
2014-Nov-17 10:31N 48°59' W 125°19'5 9.2
2014-Nov-17 10:00N 48°54' W 125°18'510.1 340 / 11027.8 3.5 1.8
2014-Nov-17 09:31N 48°59' W 125°19'0 0.0
2014-Nov-17 08:31N 48°59' W 125°19'5 9.2
2014-Nov-17 08:00N 48°54' W 125°18'510.1 040 / 11028.3 4.0 2.2
2014-Nov-17 07:31N 48°59' W 125°19'5 9.2
2014-Nov-17 07:00N 48°54' W 125°18'510.1 360 / 41028.2 4.3 1.7
2014-Nov-17 06:31N 48°59' W 125°19'5 9.2
2014-Nov-17 06:00N 48°54' W 125°18'510.1 340 / 61028.8 4.2 1.510.7
2014-Nov-17 05:31N 48°59' W 125°19'5 9.2
2014-Nov-17 05:00N 48°54' W 125°18'5 7.1 020 / 21029.1 4.3 2.210.7
2014-Nov-17 04:19N 48°59' W 125°19'514.8
2014-Nov-17 04:00N 48°54' W 125°18'510.8 060 / 31028.9 4.4 2.110.6
2014-Nov-17 03:33N 48°59' W 125°20'5 9.2
2014-Nov-17 03:00N 48°54' W 125°24'410.0 020 / 81028.1 7.4 3.111.5
2014-Nov-17 02:33N 48°51' W 125°29'610.1
2014-Nov-17 02:00N 48°54' W 125°36'613.3 090 / 41028.3 9.0 1.712.6
2014-Nov-17 01:33N 48°57' W 125°44'713.2
2014-Nov-17 01:00N 49°00' W 125°54'510.6 040 / 41028.3 9.0 1.712.6
2014-Nov-17 00:33N 49°04' W 125°58'6 9.9
2014-Nov-17 00:00N 49°06' W 126°06'612.7 260 / 11028.8 9.2 3.112.2
2014-Nov-16 23:33N 49°10' W 126°11'5 8.4
2014-Nov-16 23:00N 49°12' W 126°18'715.5 210 / 11029.3 9.2 2.012.7
2014-Nov-16 22:33N 49°17' W 126°24'813.5
2014-Nov-16 22:00N 49°24' W 126°30'3 6.8 150 / 41030.0 9.4 1.811.8
2014-Nov-16 21:33N 49°22' W 126°33'3 5.2
2014-Nov-16 21:00N 49°24' W 126°30'3 6.8 150 / 31030.7 9.5 2.1
2014-Nov-16 20:33N 49°22' W 126°33'3 5.2
2014-Nov-16 20:00N 49°24' W 126°30'3 6.8 320 / 31031.1 9.2 1.8
2014-Nov-16 19:33N 49°22' W 126°33'3 5.2
2014-Nov-16 19:00N 49°24' W 126°30'3 6.8 310 / 21031.2 9.3 1.511.8
2014-Nov-16 18:33N 49°22' W 126°33'3 5.2
2014-Nov-16 18:00N 49°24' W 126°30'3 6.8 240 / 11031.0 9.5 0.411.6
2014-Nov-16 17:33N 49°22' W 126°33'3 5.2
2014-Nov-16 17:00N 49°24' W 126°30'3 6.8 350 / 41030.9 6.3 1.211.7
2014-Nov-16 16:33N 49°22' W 126°33'3 5.3
2014-Nov-16 16:00N 49°24' W 126°30'4 9.4 110 / 81031.2 6.6-1.311.7
2014-Nov-16 15:32N 49°23' W 126°24'1 2.7
2014-Nov-16 15:00N 49°24' W 126°24'1 3.1 040 / 51031.5 5.5-1.9
2014-Nov-16 14:32N 49°23' W 126°24'1 2.7
2014-Nov-16 14:00N 49°24' W 126°24'1 3.1 020 / 21031.9 5.8-1.6
2014-Nov-16 13:32N 49°23' W 126°24'1 2.7
2014-Nov-16 13:00N 49°24' W 126°24'1 3.2 350 / 31032.3 5.7-1.2
2014-Nov-16 12:32N 49°23' W 126°24'1 2.7
2014-Nov-16 12:00N 49°24' W 126°24'1 3.2 030 / 41032.7 5.8-0.9
2014-Nov-16 11:32N 49°23' W 126°24'1 2.7
2014-Nov-16 11:00N 49°24' W 126°24'1 3.2 040 / 51032.8 5.8-0.4
2014-Nov-16 10:32N 49°23' W 126°24'1 2.7
2014-Nov-16 10:00N 49°24' W 126°24'1 3.2 030 / 31032.9 6.6-0.7
2014-Nov-16 09:32N 49°23' W 126°24'1 2.7
2014-Nov-16 09:00N 49°24' W 126°24'1 2.9 050 / 111032.7 6.3-1.1
2014-Nov-16 08:29N 49°23' W 126°24'1 3.0
2014-Nov-16 08:00N 49°24' W 126°24'1 2.9 070 / 71032.8 6.4-1.2
2014-Nov-16 07:29N 49°23' W 126°24'1 3.0
2014-Nov-16 07:00N 49°24' W 126°24'1 2.4 040 / 91032.7 6.4-1.3
2014-Nov-16 06:23N 49°23' W 126°24'1 3.8
2014-Nov-16 06:00N 49°24' W 126°24'1 2.9 040 / 91032.5 6.8-1.5
2014-Nov-16 05:29N 49°23' W 126°24'1 3.0
2014-Nov-16 05:00N 49°24' W 126°24'1 3.2 050 / 101032.4 6.8-0.3
2014-Nov-16 04:32N 49°23' W 126°24'1 2.7
2014-Nov-16 04:00N 49°24' W 126°24'1 3.2 030 / 31032.0 6.8-1.0
2014-Nov-16 03:32N 49°23' W 126°24'1 2.7
2014-Nov-16 03:00N 49°24' W 126°24'1 2.8 010 / 31031.9 6.8-0.111.9
2014-Nov-16 02:29N 49°23' W 126°24'1 3.0
2014-Nov-16 02:00N 49°24' W 126°24'1 2.8 020 / 41031.5 7.4-0.112.1
2014-Nov-16 01:29N 49°23' W 126°24'1 3.0
2014-Nov-16 01:00N 49°24' W 126°24'4 9.4 360 / 51031.0 9.0-0.212.2
2014-Nov-16 00:34N 49°21' W 126°28'610.6
2014-Nov-16 00:00N 49°18' W 126°36'716.5 130 / 121030.5 10.4-1.313.1
2014-Nov-15 23:34N 49°25' W 126°40'610.5
2014-Nov-15 23:00N 49°30' W 126°36'512.6 020 / 31030.6 8.7-1.411.5
2014-Nov-15 22:33N 49°35' W 126°36'1 1.0
2014-Nov-15 22:00N 49°36' W 126°36'1 1.2 1030.8 8.1-1.4 9.8
2014-Nov-15 21:33N 49°36' W 126°36'1 0.9
2014-Nov-15 21:00N 49°36' W 126°36'0 1.1 030 / 31031.0 7.0-2.7 9.9
2014-Nov-15 20:34N 49°36' W 126°36'0 0.8
2014-Nov-15 20:00N 49°36' W 126°36'613.7 040 / 101030.7 6.4-1.812.5
2014-Nov-15 19:33N 49°32' W 126°43'4 6.9
2014-Nov-15 19:00N 49°30' W 126°48'510.1 100 / 81030.4 8.0-2.313.1
2014-Nov-15 18:32N 49°32' W 126°55'4 7.4
2014-Nov-15 18:00N 49°36' W 126°54'4 8.7 110 / 111029.9 8.1-1.412.8
2014-Nov-15 17:33N 49°37' W 126°60'5 9.1
2014-Nov-15 17:00N 49°42' W 127°00'6 6.0 050 / 31029.7 7.5 1.512.1
2014-Nov-15 16:00N 49°48' W 127°00'8 7.7 060 / 141029.0 4.5-0.012.2
2014-Nov-15 15:00N 49°48' W 127°12'10 9.8 090 / 121028.5 6.9 1.512.5
2014-Nov-15 14:00N 49°54' W 127°24'8 7.7 070 / 121028.1 6.7 2.512.2
2014-Nov-15 13:00N 49°54' W 127°36'8 7.7 100 / 141027.6 7.9 2.813.0
2014-Nov-15 12:00N 49°54' W 127°48'1312.6 090 / 131026.9 8.5 4.513.1
2014-Nov-15 11:00N 50°06' W 127°54'10 9.8 110 / 161026.4 9.0 4.412.6
2014-Nov-15 10:00N 50°12' W 128°06'7 7.1 120 / 101026.3 9.2 4.512.5
2014-Nov-15 09:00N 50°18' W 128°12'7 7.1 080 / 111026.0 8.3 3.813.2
2014-Nov-15 08:00N 50°24' W 128°18'7 7.1 100 / 111025.4 7.9 4.012.9
2014-Nov-15 07:00N 50°30' W 128°24'7 7.1 140 / 91024.8 8.8 4.712.7
2014-Nov-15 06:00N 50°36' W 128°30'1212.0 110 / 131024.0 7.5 4.312.3
2014-Nov-15 05:00N 50°48' W 128°30'8 7.6 090 / 71023.6 7.3 3.512.6
2014-Nov-15 04:00N 50°48' W 128°18'10 9.7 110 / 61023.3 6.6 1.412.6
2014-Nov-15 03:00N 50°54' W 128°06'2 4.8 100 / 71023.2 6.2 0.312.5
2014-Nov-15 02:32N 50°54' W 128°03'2 3.1
2014-Nov-15 02:00N 50°54' W 128°00'510.7 140 / 81022.4 6.6 0.412.2
2014-Nov-15 01:29N 50°59' W 128°00'815.4
2014-Nov-15 01:00N 51°06' W 127°54'511.6 120 / 81022.1 7.5 2.110.7
2014-Nov-15 00:33N 51°11' W 127°54'712.3
2014-Nov-15 00:00N 51°18' W 127°54'714.9 110 / 31021.8 7.3-1.4 9.2
2014-Nov-14 23:32N 51°25' W 127°51'610.5
2014-Nov-14 23:00N 51°30' W 127°54'1212.0 120 / 31021.7 6.3 1.3 8.7
2014-Nov-14 22:00N 51°42' W 127°54'1212.0 090 / 11021.7 7.5-2.4 8.9
2014-Nov-14 21:00N 51°54' W 127°54'1414.1 340 / 11021.8 9.5-5.7 9.9
2014-Nov-14 20:00N 52°06' W 128°06'6 6.0 040 / 91021.9 9.0-9.7 9.8
2014-Nov-14 19:00N 52°12' W 128°06'7 7.4 040 / 91021.8 9.7-9.4 9.7
2014-Nov-14 18:00N 52°12' W 128°18'1312.5 050 / 241019.9 7.6-5.7 9.2
2014-Nov-14 17:00N 52°18' W 128°36'4 3.7 080 / 111020.3 8.5-5.2 9.0
2014-Nov-14 16:00N 52°18' W 128°42'4 3.7 050 / 171020.2 7.5-4.7 9.3
2014-Nov-14 15:00N 52°18' W 128°48'1111.0 050 / 111019.9 7.3-5.5 9.3
2014-Nov-14 14:00N 52°18' W 129°06'9 9.5 050 / 201019.6 7.9-5.511.3
2014-Nov-14 13:00N 52°24' W 129°18'1111.0 040 / 151019.8 8.0-4.311.0
2014-Nov-14 12:00N 52°24' W 129°36'7 7.0 030 / 131020.0 8.5-2.311.7
2014-Nov-14 11:00N 52°30' W 129°42'7 7.0 030 / 141020.1 9.0-2.111.5
2014-Nov-14 10:00N 52°36' W 129°48'7 7.0 020 / 121019.7 9.0-1.412.1
2014-Nov-14 09:00N 52°42' W 129°54'9 9.4 030 / 161019.7 8.1-0.912.0
2014-Nov-14 08:00N 52°48' W 130°06'9 9.4 050 / 221019.2 7.9-2.711.2
2014-Nov-14 07:00N 52°54' W 130°18'7 7.0 040 / 151019.3 8.5-4.311.3
2014-Nov-14 06:00N 53°00' W 130°24'7 7.0 070 / 131019.0 8.9-6.011.6
2014-Nov-14 05:00N 53°06' W 130°30'1212.4 050 / 51018.8 9.5-2.511.4
2014-Nov-14 04:00N 53°12' W 130°48'1212.3 030 / 81018.4 9.1-0.611.4
2014-Nov-14 03:00N 53°18' W 131°06'1212.3 020 / 71018.2 8.8-1.411.3
2014-Nov-14 02:00N 53°24' W 131°24'1110.7 010 / 61018.1 8.2-1.410.9
2014-Nov-14 01:00N 53°24' W 131°42'7 7.2 360 / 71018.2 7.8 0.7 9.5
2014-Nov-14 00:00N 53°24' W 131°54'0 0.0 310 / 21018.7 8.4 1.3 9.5
2014-Nov-13 23:00N 53°24' W 131°54'0 0.0 340 / 41018.9 7.6 1.3 9.7
2014-Nov-13 22:00N 53°24' W 131°54'1212.3 330 / 51018.9 7.5 3.2 9.4
2014-Nov-13 21:00N 53°30' W 131°36'7 7.1 300 / 71018.9 7.7 3.3 9.7
2014-Nov-13 20:00N 53°30' W 131°24'1110.7 070 / 31019.0 8.9-2.110.5
2014-Nov-13 19:00N 53°30' W 131°06'7 7.1 080 / 51018.8 9.0-3.511.2
2014-Nov-13 18:00N 53°30' W 130°54'7 7.1 070 / 71018.5 8.0-3.911.4
2014-Nov-13 17:00N 53°30' W 130°42'0 0.0 060 / 91018.1 6.8-3.711.3
2014-Nov-13 16:00N 53°30' W 130°42'6 6.0 050 / 101017.8 6.2-3.111.3
2014-Nov-13 15:00N 53°36' W 130°42'0 0.0 020 / 81017.9 6.9-3.511.3
2014-Nov-13 14:00N 53°36' W 130°42'7 7.0 020 / 71018.3 6.7-1.611.1
2014-Nov-13 13:00N 53°42' W 130°48'6 6.0 050 / 71018.8 7.3-4.210.8
2014-Nov-13 12:00N 53°48' W 130°48'6 6.0 070 / 71019.4 6.6-3.810.6
2014-Nov-13 11:00N 53°54' W 130°48'4 3.5 080 / 61019.8 7.2-3.511.0
2014-Nov-13 10:00N 53°54' W 130°54'4 3.5 050 / 131020.1 7.1-3.611.1
2014-Nov-13 09:00N 53°54' W 130°48'1312.5 040 / 121020.3 6.7-5.010.9
2014-Nov-13 08:00N 54°06' W 130°42'5 8.7 090 / 121020.9 6.6-5.411.1
2014-Nov-13 07:24N 54°02' W 130°36'511.7
2014-Nov-13 07:00N 54°06' W 130°30'1 2.6 090 / 71021.0 6.9-6.111.0
2014-Nov-13 06:33N 54°07' W 130°28'610.6
2014-Nov-13 06:00N 54°12' W 130°24'2 3.7 080 / 161020.9 7.7-8.3 9.1
2014-Nov-13 05:30N 54°12' W 130°21'611.6
2014-Nov-13 05:00N 54°18' W 130°24'3 7.5 060 / 11021.0 2.9-1.8 9.4
2014-Nov-13 04:34N 54°20' W 130°19'2 3.0
2014-Nov-13 04:00N 54°18' W 130°18'2 5.4 040 / 11021.2 2.7 0.8
2014-Nov-13 03:32N 54°20' W 130°17'2 4.6
2014-Nov-13 03:00N 54°18' W 130°18'2 5.4 080 / 21021.3 2.4 0.5
2014-Nov-13 02:32N 54°20' W 130°17'2 4.6
2014-Nov-13 02:00N 54°18' W 130°18'2 5.4 060 / 21021.4 3.4 1.3 9.7
2014-Nov-13 01:32N 54°20' W 130°17'2 4.5
2014-Nov-13 01:00N 54°18' W 130°18'2 5.4 020 / 41021.8 4.7 1.3 9.5
2014-Nov-13 00:32N 54°20' W 130°17'2 4.6
2014-Nov-13 00:00N 54°18' W 130°18'2 5.6 200 / 11022.1 7.0-1.3 9.7
2014-Nov-12 23:33N 54°20' W 130°17'2 4.3
2014-Nov-12 23:00N 54°18' W 130°18'2 5.5 190 / 31022.5 6.8-4.1 9.6
2014-Nov-12 22:33N 54°17' W 130°22'5 9.7
2014-Nov-12 22:00N 54°12' W 130°24'2 5.5 010 / 51023.2 6.9-2.8 9.5
2014-Nov-12 21:33N 54°12' W 130°28'5 8.4
2014-Nov-12 21:00N 54°12' W 130°36'716.2 030 / 81024.1 6.3-1.510.4
2014-Nov-12 20:33N 54°17' W 130°44'2 4.1
2014-Nov-12 20:00N 54°18' W 130°48'1 2.3 040 / 101024.8 6.5-3.510.4
2014-Nov-12 19:32N 54°19' W 130°49'1 2.0
2014-Nov-12 19:00N 54°18' W 130°48'1 2.3 050 / 141025.4 6.2-3.510.4
2014-Nov-12 18:30N 54°19' W 130°49'1 2.3
2014-Nov-12 18:00N 54°18' W 130°48'5 5.8 060 / 131025.3 5.9-2.610.1
2014-Nov-12 17:04N 54°20' W 130°56'334.0
2014-Nov-12 17:00N 54°18' W 130°54'2 4.9 050 / 191025.2 5.8-3.511.0
2014-Nov-12 16:30N 54°20' W 130°56'2 4.7
2014-Nov-12 16:00N 54°18' W 130°54'2 5.3 050 / 211025.3 5.5-3.010.9
2014-Nov-12 15:33N 54°20' W 130°57'2 4.3
2014-Nov-12 15:00N 54°18' W 130°54'4 8.1 050 / 151025.7 5.6-2.611.1
2014-Nov-12 14:33N 54°17' W 130°49'610.5
2014-Nov-12 14:00N 54°12' W 130°42'1 2.6 060 / 51026.1 6.0-0.610.9
2014-Nov-12 13:33N 54°13' W 130°40'3 4.7
2014-Nov-12 13:00N 54°12' W 130°36'4 8.8 080 / 141026.2 6.5-4.811.5
2014-Nov-12 12:32N 54°08' W 130°34'2 4.1
2014-Nov-12 12:00N 54°06' W 130°36'4 3.5 090 / 111026.0 4.9-3.111.6
2014-Nov-12 11:00N 54°06' W 130°42'1312.5 070 / 171025.9 6.3-3.311.2
2014-Nov-12 10:00N 53°54' W 130°48'0 0.0 060 / 151026.2 6.6-1.910.9
2014-Nov-12 09:00N 53°54' W 130°48'7 7.0 060 / 41026.7 6.7-1.510.9
2014-Nov-12 08:00N 53°48' W 130°42'7 7.0 090 / 101026.9 7.2-3.210.9
2014-Nov-12 07:00N 53°42' W 130°36'4 3.6 080 / 101027.0 7.0-1.610.9
2014-Nov-12 06:00N 53°42' W 130°30'9 9.3 090 / 81026.9 6.1-3.011.0
2014-Nov-12 05:00N 53°36' W 130°18'4 3.6 110 / 151026.6 8.0-2.510.7
2014-Nov-12 04:00N 53°36' W 130°12'7 7.0 140 / 141026.6 6.7-6.010.7
2014-Nov-12 03:00N 53°30' W 130°06'7 7.1 130 / 91026.8 7.2-5.710.5
2014-Nov-12 02:00N 53°30' W 129°54'6 6.0 080 / 31026.6 7.4-7.010.1
2014-Nov-12 01:00N 53°24' W 129°54'7 7.0 080 / 131026.4 7.9-7.4 9.8
2014-Nov-12 00:00N 53°18' W 129°48'4 3.6 060 / 71026.5 9.1-6.810.0
2014-Nov-11 23:00N 53°18' W 129°42'7 7.0 070 / 131026.5 8.6-5.2 9.9
2014-Nov-11 22:00N 53°12' W 129°36'0 0.0 080 / 211026.3 8.2-6.1 9.8
2014-Nov-11 21:00N 53°12' W 129°36'0 0.0 070 / 201026.3 7.9-7.0 9.9
2014-Nov-11 20:00N 53°12' W 129°36'0 0.0 060 / 231026.4 7.7-5.910.0
2014-Nov-11 19:00N 53°12' W 129°36'0 0.0 060 / 241026.5 7.4-3.410.1
2014-Nov-11 18:00N 53°12' W 129°36'4 3.6 060 / 251025.8 7.2-3.910.1
2014-Nov-11 17:00N 53°12' W 129°42'4 3.6 070 / 181026.1 7.9-2.4 9.9
2014-Nov-11 16:00N 53°12' W 129°36'7 7.2 070 / 181025.4 7.4-1.7 9.8
2014-Nov-11 15:00N 53°12' W 129°24'0 0.0 030 / 251025.1 6.9-0.8 9.9
2014-Nov-11 14:00N 53°12' W 129°24'0 0.0 010 / 181025.4 6.8-0.5 9.9
2014-Nov-11 13:00N 53°12' W 129°24'0 0.0 020 / 191025.7 7.1-0.0 9.9
2014-Nov-11 12:00N 53°12' W 129°24'   020 / 241025.5 7.3 0.3 9.8
Track history (hours):
 
Tides and Currents Weather Stations Pressure Air Temp Water Temp Dewpoint Dewpoint Depression Visibility Wind Speed Wind Dir Waves Ship Positions

Oceanographic research ship CCGS Sir Wilfrid Laurier (Canada)

Detailed information on ship capabilities available from ARCUS's ALIAS (Arctic Logistics Information and Support) project.

Last reported at 2014-Nov-21 11:31 UTC. Time now 2014-Nov-21 12:21 UTC.
Position N 48°25' W 123°23'.

Length 83 m; beam 16.2 m; draft 6 m.

Type: SAR. MMSI: 316052000.

Date/timePositionNaut miles runAvg speedWind from/ knotsBaromVisibWave heightAir tempDewpointWater temp
2014-Nov-21 11:31N 48°25' W 123°23'0 0.0
2014-Nov-21 10:13N 48°25' W 123°23'0 0.0
2014-Nov-21 09:31N 48°25' W 123°23'0 0.0
2014-Nov-21 08:31N 48°25' W 123°23'0 0.0
2014-Nov-21 07:31N 48°25' W 123°23'0 0.0
2014-Nov-21 06:31N 48°25' W 123°23'1 2.5
2014-Nov-21 06:00N 48°24' W 123°24'1 2.7 360 / 41011.9 9.5 9.4
2014-Nov-21 05:31N 48°25' W 123°23'0 0.0
2014-Nov-21 04:31N 48°25' W 123°23'0 0.0
2014-Nov-21 03:19N 48°25' W 123°23'1 0.4
2014-Nov-21 00:00N 48°24' W 123°24'1 0.5 100 / 11013.2 10.1 9.0
2014-Nov-20 21:25N 48°25' W 123°23'0 0.0
2014-Nov-20 19:31N 48°25' W 123°23'0 0.0
2014-Nov-20 18:13N 48°25' W 123°23'1 5.8
2014-Nov-20 18:00N 48°24' W 123°24'1 2.7 110 / 31013.9 8.6 7.4
2014-Nov-20 17:31N 48°25' W 123°23'0 0.0
2014-Nov-20 15:07N 48°25' W 123°23'0 0.0
2014-Nov-20 14:25N 48°25' W 123°23'0 0.0
2014-Nov-20 13:25N 48°25' W 123°23'0 0.0
2014-Nov-20 12:31N 48°25' W 123°23'1 2.5
2014-Nov-20 12:00N 48°24' W 123°24'1 2.7 010 / 31011.1 8.1 5.8
2014-Nov-20 11:31N 48°25' W 123°23'0 0.0
2014-Nov-20 10:31N 48°25' W 123°23'0 0.0
2014-Nov-20 09:31N 48°25' W 123°23'1 0.4
2014-Nov-20 06:00N 48°24' W 123°24'0 0.0 010 / 51009.4 8.7 6.4
2014-Nov-20 00:00N 48°24' W 123°24'0 0.0 020 / 81010.4 10.5 3.7
2014-Nov-19 18:00N 48°24' W 123°24'0 0.0 020 / 81015.0 9.0 3.3
2014-Nov-19 12:00N 48°24' W 123°24'0 0.0 010 / 41017.7 7.0 3.6
2014-Nov-19 06:00N 48°24' W 123°24'0 0.0 010 / 51018.7 6.8 4.0
2014-Nov-19 00:00N 48°24' W 123°24'1 0.7 030 / 41019.9 9.0 4.2
2014-Nov-18 22:10N 48°25' W 123°23'1 0.3
2014-Nov-18 18:00N 48°24' W 123°24'1 0.8 010 / 71021.2 7.1 4.3
2014-Nov-18 16:25N 48°25' W 123°23'1 0.5
2014-Nov-18 14:00N 48°24' W 123°24'0 0.0 030 / 41020.8 4.4 1.3
2014-Nov-18 13:00N 48°24' W 123°24'0 0.0 010 / 51021.1 4.1 0.3
2014-Nov-18 12:00N 48°24' W 123°24'0 0.0 010 / 41021.3 4.3 0.5
2014-Nov-18 11:00N 48°24' W 123°24'0 0.0 360 / 21021.7 3.8 0.3
2014-Nov-18 10:00N 48°24' W 123°24'0 0.0 010 / 61021.9 3.4 0.4
2014-Nov-18 09:00N 48°24' W 123°24'0 0.0 020 / 61022.3 4.5 1.4
2014-Nov-18 08:00N 48°24' W 123°24'0 0.0 010 / 41023.0 4.3 0.9
2014-Nov-18 07:00N 48°24' W 123°24'0 0.0 010 / 51023.1 4.5 1.3
2014-Nov-18 06:00N 48°24' W 123°24'0 0.0 010 / 61023.7 4.8 1.610.2
2014-Nov-18 05:00N 48°24' W 123°24'1 1.5 020 / 51023.8 5.7 2.310.2
2014-Nov-18 04:07N 48°25' W 123°23'110.2
2014-Nov-18 04:00N 48°24' W 123°24'2 3.7 020 / 61024.1 5.8 2.110.3
2014-Nov-18 03:34N 48°23' W 123°26'610.0
2014-Nov-18 03:00N 48°18' W 123°30'4 8.8 060 / 81024.3 7.6 2.310.5
2014-Nov-18 02:33N 48°18' W 123°36'4 7.4
2014-Nov-18 02:00N 48°18' W 123°42'715.1 110 / 121024.0 8.3 2.510.5
2014-Nov-18 01:34N 48°20' W 123°51'4 7.3
2014-Nov-18 01:00N 48°24' W 123°54'817.8 130 / 181024.0 8.6 1.810.4
2014-Nov-18 00:33N 48°24' W 124°06'4 7.6
2014-Nov-18 00:00N 48°24' W 124°12'613.2 130 / 161024.7 8.4 3.010.6
2014-Nov-17 23:34N 48°27' W 124°19'4 7.5
2014-Nov-17 23:00N 48°30' W 124°24'614.7 120 / 201024.3 8.3 3.310.9
2014-Nov-17 22:33N 48°31' W 124°34'713.0
2014-Nov-17 22:00N 48°36' W 124°42'4 9.3 110 / 271023.8 8.6 3.812.6
2014-Nov-17 21:33N 48°35' W 124°48'4 7.1
2014-Nov-17 21:00N 48°36' W 124°54'715.5 120 / 271024.2 8.7 4.512.5
2014-Nov-17 20:34N 48°40' W 125°02'3 5.7
2014-Nov-17 20:00N 48°42' W 125°06'2 3.9 120 / 231025.6 9.2 3.812.2
2014-Nov-17 19:34N 48°42' W 125°09'2 4.1
2014-Nov-17 19:00N 48°42' W 125°12'4 9.0 110 / 221025.7 8.6 3.112.3
2014-Nov-17 18:33N 48°45' W 125°15'3 5.9
2014-Nov-17 18:00N 48°48' W 125°12'4 8.1 110 / 41027.1 5.9-0.912.1
2014-Nov-17 17:34N 48°51' W 125°08'3 5.3
2014-Nov-17 17:00N 48°48' W 125°06'3 7.4 170 / 41027.0 2.5-0.212.1
2014-Nov-17 16:34N 48°51' W 125°08'4 7.1
2014-Nov-17 16:00N 48°54' W 125°12'4 9.1 090 / 81026.7 6.4-1.610.8
2014-Nov-17 15:33N 48°57' W 125°16'3 2.5
2014-Nov-17 14:31N 48°59' W 125°19'0 0.0
2014-Nov-17 13:31N 48°59' W 125°19'5 9.2
2014-Nov-17 13:00N 48°54' W 125°18'510.1 030 / 11028.1 3.2 0.5
2014-Nov-17 12:31N 48°59' W 125°19'5 9.1
2014-Nov-17 12:00N 48°54' W 125°18'510.1 010 / 31027.7 3.5 1.6
2014-Nov-17 11:31N 48°59' W 125°19'5 9.2
2014-Nov-17 11:00N 48°54' W 125°18'510.1 010 / 31027.9 3.3 1.2
2014-Nov-17 10:31N 48°59' W 125°19'5 9.2
2014-Nov-17 10:00N 48°54' W 125°18'510.1 340 / 11027.8 3.5 1.8
2014-Nov-17 09:31N 48°59' W 125°19'0 0.0
2014-Nov-17 08:31N 48°59' W 125°19'5 9.2
2014-Nov-17 08:00N 48°54' W 125°18'510.1 040 / 11028.3 4.0 2.2
2014-Nov-17 07:31N 48°59' W 125°19'5 9.2
2014-Nov-17 07:00N 48°54' W 125°18'510.1 360 / 41028.2 4.3 1.7
2014-Nov-17 06:31N 48°59' W 125°19'5 9.2
2014-Nov-17 06:00N 48°54' W 125°18'510.1 340 / 61028.8 4.2 1.510.7
2014-Nov-17 05:31N 48°59' W 125°19'5 9.2
2014-Nov-17 05:00N 48°54' W 125°18'5 7.1 020 / 21029.1 4.3 2.210.7
2014-Nov-17 04:19N 48°59' W 125°19'514.8
2014-Nov-17 04:00N 48°54' W 125°18'510.8 060 / 31028.9 4.4 2.110.6
2014-Nov-17 03:33N 48°59' W 125°20'5 9.2
2014-Nov-17 03:00N 48°54' W 125°24'410.0 020 / 81028.1 7.4 3.111.5
2014-Nov-17 02:33N 48°51' W 125°29'610.1
2014-Nov-17 02:00N 48°54' W 125°36'613.3 090 / 41028.3 9.0 1.712.6
2014-Nov-17 01:33N 48°57' W 125°44'713.2
2014-Nov-17 01:00N 49°00' W 125°54'510.6 040 / 41028.3 9.0 1.712.6
2014-Nov-17 00:33N 49°04' W 125°58'6 9.9
2014-Nov-17 00:00N 49°06' W 126°06'612.7 260 / 11028.8 9.2 3.112.2
2014-Nov-16 23:33N 49°10' W 126°11'5 8.4
2014-Nov-16 23:00N 49°12' W 126°18'715.5 210 / 11029.3 9.2 2.012.7
2014-Nov-16 22:33N 49°17' W 126°24'813.5
2014-Nov-16 22:00N 49°24' W 126°30'3 6.8 150 / 41030.0 9.4 1.811.8
2014-Nov-16 21:33N 49°22' W 126°33'3 5.2
2014-Nov-16 21:00N 49°24' W 126°30'3 6.8 150 / 31030.7 9.5 2.1
2014-Nov-16 20:33N 49°22' W 126°33'3 5.2
2014-Nov-16 20:00N 49°24' W 126°30'3 6.8 320 / 31031.1 9.2 1.8
2014-Nov-16 19:33N 49°22' W 126°33'3 5.2
2014-Nov-16 19:00N 49°24' W 126°30'3 6.8 310 / 21031.2 9.3 1.511.8
2014-Nov-16 18:33N 49°22' W 126°33'3 5.2
2014-Nov-16 18:00N 49°24' W 126°30'3 6.8 240 / 11031.0 9.5 0.411.6
2014-Nov-16 17:33N 49°22' W 126°33'3 5.2
2014-Nov-16 17:00N 49°24' W 126°30'3 6.8 350 / 41030.9 6.3 1.211.7
2014-Nov-16 16:33N 49°22' W 126°33'3 5.3
2014-Nov-16 16:00N 49°24' W 126°30'4 9.4 110 / 81031.2 6.6-1.311.7
2014-Nov-16 15:32N 49°23' W 126°24'1 2.7
2014-Nov-16 15:00N 49°24' W 126°24'1 3.1 040 / 51031.5 5.5-1.9
2014-Nov-16 14:32N 49°23' W 126°24'1 2.7
2014-Nov-16 14:00N 49°24' W 126°24'1 3.1 020 / 21031.9 5.8-1.6
2014-Nov-16 13:32N 49°23' W 126°24'1 2.7
2014-Nov-16 13:00N 49°24' W 126°24'1 3.2 350 / 31032.3 5.7-1.2
2014-Nov-16 12:32N 49°23' W 126°24'1 2.7
2014-Nov-16 12:00N 49°24' W 126°24'1 3.2 030 / 41032.7 5.8-0.9
2014-Nov-16 11:32N 49°23' W 126°24'1 2.7
2014-Nov-16 11:00N 49°24' W 126°24'1 3.2 040 / 51032.8 5.8-0.4
2014-Nov-16 10:32N 49°23' W 126°24'1 2.7
2014-Nov-16 10:00N 49°24' W 126°24'1 3.2 030 / 31032.9 6.6-0.7
2014-Nov-16 09:32N 49°23' W 126°24'1 2.7
2014-Nov-16 09:00N 49°24' W 126°24'1 2.9 050 / 111032.7 6.3-1.1
2014-Nov-16 08:29N 49°23' W 126°24'1 3.0
2014-Nov-16 08:00N 49°24' W 126°24'1 2.9 070 / 71032.8 6.4-1.2
2014-Nov-16 07:29N 49°23' W 126°24'1 3.0
2014-Nov-16 07:00N 49°24' W 126°24'1 2.4 040 / 91032.7 6.4-1.3
2014-Nov-16 06:23N 49°23' W 126°24'1 3.8
2014-Nov-16 06:00N 49°24' W 126°24'1 2.9 040 / 91032.5 6.8-1.5
2014-Nov-16 05:29N 49°23' W 126°24'1 3.0
2014-Nov-16 05:00N 49°24' W 126°24'1 3.2 050 / 101032.4 6.8-0.3
2014-Nov-16 04:32N 49°23' W 126°24'1 2.7
2014-Nov-16 04:00N 49°24' W 126°24'1 3.2 030 / 31032.0 6.8-1.0
2014-Nov-16 03:32N 49°23' W 126°24'1 2.7
2014-Nov-16 03:00N 49°24' W 126°24'1 2.8 010 / 31031.9 6.8-0.111.9
2014-Nov-16 02:29N 49°23' W 126°24'1 3.0
2014-Nov-16 02:00N 49°24' W 126°24'1 2.8 020 / 41031.5 7.4-0.112.1
2014-Nov-16 01:29N 49°23' W 126°24'1 3.0
2014-Nov-16 01:00N 49°24' W 126°24'4 9.4 360 / 51031.0 9.0-0.212.2
2014-Nov-16 00:34N 49°21' W 126°28'610.6
2014-Nov-16 00:00N 49°18' W 126°36'716.5 130 / 121030.5 10.4-1.313.1
2014-Nov-15 23:34N 49°25' W 126°40'610.5
2014-Nov-15 23:00N 49°30' W 126°36'512.6 020 / 31030.6 8.7-1.411.5
2014-Nov-15 22:33N 49°35' W 126°36'1 1.0
2014-Nov-15 22:00N 49°36' W 126°36'1 1.2 1030.8 8.1-1.4 9.8
2014-Nov-15 21:33N 49°36' W 126°36'1 0.9
2014-Nov-15 21:00N 49°36' W 126°36'0 1.1 030 / 31031.0 7.0-2.7 9.9
2014-Nov-15 20:34N 49°36' W 126°36'0 0.8
2014-Nov-15 20:00N 49°36' W 126°36'613.7 040 / 101030.7 6.4-1.812.5
2014-Nov-15 19:33N 49°32' W 126°43'4 6.9
2014-Nov-15 19:00N 49°30' W 126°48'510.1 100 / 81030.4 8.0-2.313.1
2014-Nov-15 18:32N 49°32' W 126°55'4 7.4
2014-Nov-15 18:00N 49°36' W 126°54'4 8.7 110 / 111029.9 8.1-1.412.8
2014-Nov-15 17:33N 49°37' W 126°60'5 9.1
2014-Nov-15 17:00N 49°42' W 127°00'6 6.0 050 / 31029.7 7.5 1.512.1
2014-Nov-15 16:00N 49°48' W 127°00'8 7.7 060 / 141029.0 4.5-0.012.2
2014-Nov-15 15:00N 49°48' W 127°12'10 9.8 090 / 121028.5 6.9 1.512.5
2014-Nov-15 14:00N 49°54' W 127°24'8 7.7 070 / 121028.1 6.7 2.512.2
2014-Nov-15 13:00N 49°54' W 127°36'8 7.7 100 / 141027.6 7.9 2.813.0
2014-Nov-15 12:00N 49°54' W 127°48'1312.6 090 / 131026.9 8.5 4.513.1
2014-Nov-15 11:00N 50°06' W 127°54'10 9.8 110 / 161026.4 9.0 4.412.6
2014-Nov-15 10:00N 50°12' W 128°06'7 7.1 120 / 101026.3 9.2 4.512.5
2014-Nov-15 09:00N 50°18' W 128°12'7 7.1 080 / 111026.0 8.3 3.813.2
2014-Nov-15 08:00N 50°24' W 128°18'7 7.1 100 / 111025.4 7.9 4.012.9
2014-Nov-15 07:00N 50°30' W 128°24'7 7.1 140 / 91024.8 8.8 4.712.7
2014-Nov-15 06:00N 50°36' W 128°30'1212.0 110 / 131024.0 7.5 4.312.3
2014-Nov-15 05:00N 50°48' W 128°30'8 7.6 090 / 71023.6 7.3 3.512.6
2014-Nov-15 04:00N 50°48' W 128°18'10 9.7 110 / 61023.3 6.6 1.412.6
2014-Nov-15 03:00N 50°54' W 128°06'2 4.8 100 / 71023.2 6.2 0.312.5
2014-Nov-15 02:32N 50°54' W 128°03'2 3.1
2014-Nov-15 02:00N 50°54' W 128°00'510.7 140 / 81022.4 6.6 0.412.2
2014-Nov-15 01:29N 50°59' W 128°00'815.4
2014-Nov-15 01:00N 51°06' W 127°54'511.6 120 / 81022.1 7.5 2.110.7
2014-Nov-15 00:33N 51°11' W 127°54'712.3
2014-Nov-15 00:00N 51°18' W 127°54'714.9 110 / 31021.8 7.3-1.4 9.2
2014-Nov-14 23:32N 51°25' W 127°51'610.5
2014-Nov-14 23:00N 51°30' W 127°54'1212.0 120 / 31021.7 6.3 1.3 8.7
2014-Nov-14 22:00N 51°42' W 127°54'1212.0 090 / 11021.7 7.5-2.4 8.9
2014-Nov-14 21:00N 51°54' W 127°54'1414.1 340 / 11021.8 9.5-5.7 9.9
2014-Nov-14 20:00N 52°06' W 128°06'6 6.0 040 / 91021.9 9.0-9.7 9.8
2014-Nov-14 19:00N 52°12' W 128°06'7 7.4 040 / 91021.8 9.7-9.4 9.7
2014-Nov-14 18:00N 52°12' W 128°18'1312.5 050 / 241019.9 7.6-5.7 9.2
2014-Nov-14 17:00N 52°18' W 128°36'4 3.7 080 / 111020.3 8.5-5.2 9.0
2014-Nov-14 16:00N 52°18' W 128°42'4 3.7 050 / 171020.2 7.5-4.7 9.3
2014-Nov-14 15:00N 52°18' W 128°48'1111.0 050 / 111019.9 7.3-5.5 9.3
2014-Nov-14 14:00N 52°18' W 129°06'9 9.5 050 / 201019.6 7.9-5.511.3
2014-Nov-14 13:00N 52°24' W 129°18'1111.0 040 / 151019.8 8.0-4.311.0
2014-Nov-14 12:00N 52°24' W 129°36'7 7.0 030 / 131020.0 8.5-2.311.7
2014-Nov-14 11:00N 52°30' W 129°42'7 7.0 030 / 141020.1 9.0-2.111.5
2014-Nov-14 10:00N 52°36' W 129°48'7 7.0 020 / 121019.7 9.0-1.412.1
2014-Nov-14 09:00N 52°42' W 129°54'9 9.4 030 / 161019.7 8.1-0.912.0
2014-Nov-14 08:00N 52°48' W 130°06'9 9.4 050 / 221019.2 7.9-2.711.2
2014-Nov-14 07:00N 52°54' W 130°18'7 7.0 040 / 151019.3 8.5-4.311.3
2014-Nov-14 06:00N 53°00' W 130°24'7 7.0 070 / 131019.0 8.9-6.011.6
2014-Nov-14 05:00N 53°06' W 130°30'1212.4 050 / 51018.8 9.5-2.511.4
2014-Nov-14 04:00N 53°12' W 130°48'1212.3 030 / 81018.4 9.1-0.611.4
2014-Nov-14 03:00N 53°18' W 131°06'1212.3 020 / 71018.2 8.8-1.411.3
2014-Nov-14 02:00N 53°24' W 131°24'1110.7 010 / 61018.1 8.2-1.410.9
2014-Nov-14 01:00N 53°24' W 131°42'7 7.2 360 / 71018.2 7.8 0.7 9.5
2014-Nov-14 00:00N 53°24' W 131°54'0 0.0 310 / 21018.7 8.4 1.3 9.5
2014-Nov-13 23:00N 53°24' W 131°54'0 0.0 340 / 41018.9 7.6 1.3 9.7
2014-Nov-13 22:00N 53°24' W 131°54'1212.3 330 / 51018.9 7.5 3.2 9.4
2014-Nov-13 21:00N 53°30' W 131°36'7 7.1 300 / 71018.9 7.7 3.3 9.7
2014-Nov-13 20:00N 53°30' W 131°24'1110.7 070 / 31019.0 8.9-2.110.5
2014-Nov-13 19:00N 53°30' W 131°06'7 7.1 080 / 51018.8 9.0-3.511.2
2014-Nov-13 18:00N 53°30' W 130°54'7 7.1 070 / 71018.5 8.0-3.911.4
2014-Nov-13 17:00N 53°30' W 130°42'0 0.0 060 / 91018.1 6.8-3.711.3
2014-Nov-13 16:00N 53°30' W 130°42'6 6.0 050 / 101017.8 6.2-3.111.3
2014-Nov-13 15:00N 53°36' W 130°42'0 0.0 020 / 81017.9 6.9-3.511.3
2014-Nov-13 14:00N 53°36' W 130°42'7 7.0 020 / 71018.3 6.7-1.611.1
2014-Nov-13 13:00N 53°42' W 130°48'6 6.0 050 / 71018.8 7.3-4.210.8
2014-Nov-13 12:00N 53°48' W 130°48'6 6.0 070 / 71019.4 6.6-3.810.6
2014-Nov-13 11:00N 53°54' W 130°48'4 3.5 080 / 61019.8 7.2-3.511.0
2014-Nov-13 10:00N 53°54' W 130°54'4 3.5 050 / 131020.1 7.1-3.611.1
2014-Nov-13 09:00N 53°54' W 130°48'1312.5 040 / 121020.3 6.7-5.010.9
2014-Nov-13 08:00N 54°06' W 130°42'5 8.7 090 / 121020.9 6.6-5.411.1
2014-Nov-13 07:24N 54°02' W 130°36'511.7
2014-Nov-13 07:00N 54°06' W 130°30'1 2.6 090 / 71021.0 6.9-6.111.0
2014-Nov-13 06:33N 54°07' W 130°28'610.6
2014-Nov-13 06:00N 54°12' W 130°24'2 3.7 080 / 161020.9 7.7-8.3 9.1
2014-Nov-13 05:30N 54°12' W 130°21'611.6
2014-Nov-13 05:00N 54°18' W 130°24'3 7.5 060 / 11021.0 2.9-1.8 9.4
2014-Nov-13 04:34N 54°20' W 130°19'2 3.0
2014-Nov-13 04:00N 54°18' W 130°18'2 5.4 040 / 11021.2 2.7 0.8
2014-Nov-13 03:32N 54°20' W 130°17'2 4.6
2014-Nov-13 03:00N 54°18' W 130°18'2 5.4 080 / 21021.3 2.4 0.5
2014-Nov-13 02:32N 54°20' W 130°17'2 4.6
2014-Nov-13 02:00N 54°18' W 130°18'2 5.4 060 / 21021.4 3.4 1.3 9.7
2014-Nov-13 01:32N 54°20' W 130°17'2 4.5
2014-Nov-13 01:00N 54°18' W 130°18'2 5.4 020 / 41021.8 4.7 1.3 9.5
2014-Nov-13 00:32N 54°20' W 130°17'2 4.6
2014-Nov-13 00:00N 54°18' W 130°18'2 5.6 200 / 11022.1 7.0-1.3 9.7
2014-Nov-12 23:33N 54°20' W 130°17'2 4.3
2014-Nov-12 23:00N 54°18' W 130°18'2 5.5 190 / 31022.5 6.8-4.1 9.6
2014-Nov-12 22:33N 54°17' W 130°22'5 9.7
2014-Nov-12 22:00N 54°12' W 130°24'2 5.5 010 / 51023.2 6.9-2.8 9.5
2014-Nov-12 21:33N 54°12' W 130°28'5 8.4
2014-Nov-12 21:00N 54°12' W 130°36'716.2 030 / 81024.1 6.3-1.510.4
2014-Nov-12 20:33N 54°17' W 130°44'2 4.1
2014-Nov-12 20:00N 54°18' W 130°48'1 2.3 040 / 101024.8 6.5-3.510.4
2014-Nov-12 19:32N 54°19' W 130°49'1 2.0
2014-Nov-12 19:00N 54°18' W 130°48'1 2.3 050 / 141025.4 6.2-3.510.4
2014-Nov-12 18:30N 54°19' W 130°49'1 2.3
2014-Nov-12 18:00N 54°18' W 130°48'5 5.8 060 / 131025.3 5.9-2.610.1
2014-Nov-12 17:04N 54°20' W 130°56'334.0
2014-Nov-12 17:00N 54°18' W 130°54'2 4.9 050 / 191025.2 5.8-3.511.0
2014-Nov-12 16:30N 54°20' W 130°56'2 4.7
2014-Nov-12 16:00N 54°18' W 130°54'2 5.3 050 / 211025.3 5.5-3.010.9
2014-Nov-12 15:33N 54°20' W 130°57'2 4.3
2014-Nov-12 15:00N 54°18' W 130°54'4 8.1 050 / 151025.7 5.6-2.611.1
2014-Nov-12 14:33N 54°17' W 130°49'610.5
2014-Nov-12 14:00N 54°12' W 130°42'1 2.6 060 / 51026.1 6.0-0.610.9
2014-Nov-12 13:33N 54°13' W 130°40'3 4.7
2014-Nov-12 13:00N 54°12' W 130°36'4 8.8 080 / 141026.2 6.5-4.811.5
2014-Nov-12 12:32N 54°08' W 130°34'2 4.1
2014-Nov-12 12:00N 54°06' W 130°36'4 3.5 090 / 111026.0 4.9-3.111.6
2014-Nov-12 11:00N 54°06' W 130°42'1312.5 070 / 171025.9 6.3-3.311.2
2014-Nov-12 10:00N 53°54' W 130°48'0 0.0 060 / 151026.2 6.6-1.910.9
2014-Nov-12 09:00N 53°54' W 130°48'7 7.0 060 / 41026.7 6.7-1.510.9
2014-Nov-12 08:00N 53°48' W 130°42'7 7.0 090 / 101026.9 7.2-3.210.9
2014-Nov-12 07:00N 53°42' W 130°36'4 3.6 080 / 101027.0 7.0-1.610.9
2014-Nov-12 06:00N 53°42' W 130°30'9 9.3 090 / 81026.9 6.1-3.011.0
2014-Nov-12 05:00N 53°36' W 130°18'4 3.6 110 / 151026.6 8.0-2.510.7
2014-Nov-12 04:00N 53°36' W 130°12'7 7.0 140 / 141026.6 6.7-6.010.7
2014-Nov-12 03:00N 53°30' W 130°06'7 7.1 130 / 91026.8 7.2-5.710.5
2014-Nov-12 02:00N 53°30' W 129°54'6 6.0 080 / 31026.6 7.4-7.010.1
2014-Nov-12 01:00N 53°24' W 129°54'7 7.0 080 / 131026.4 7.9-7.4 9.8
2014-Nov-12 00:00N 53°18' W 129°48'4 3.6 060 / 71026.5 9.1-6.810.0
2014-Nov-11 23:00N 53°18' W 129°42'7 7.0 070 / 131026.5 8.6-5.2 9.9
2014-Nov-11 22:00N 53°12' W 129°36'0 0.0 080 / 211026.3 8.2-6.1 9.8
2014-Nov-11 21:00N 53°12' W 129°36'0 0.0 070 / 201026.3 7.9-7.0 9.9
2014-Nov-11 20:00N 53°12' W 129°36'0 0.0 060 / 231026.4 7.7-5.910.0
2014-Nov-11 19:00N 53°12' W 129°36'0 0.0 060 / 241026.5 7.4-3.410.1
2014-Nov-11 18:00N 53°12' W 129°36'4 3.6 060 / 251025.8 7.2-3.910.1
2014-Nov-11 17:00N 53°12' W 129°42'4 3.6 070 / 181026.1 7.9-2.4 9.9
2014-Nov-11 16:00N 53°12' W 129°36'7 7.2 070 / 181025.4 7.4-1.7 9.8
2014-Nov-11 15:00N 53°12' W 129°24'0 0.0 030 / 251025.1 6.9-0.8 9.9
2014-Nov-11 14:00N 53°12' W 129°24'0 0.0 010 / 181025.4 6.8-0.5 9.9
2014-Nov-11 13:00N 53°12' W 129°24'0 0.0 020 / 191025.7 7.1-0.0 9.9
2014-Nov-11 12:00N 53°12' W 129°24'   020 / 241025.5 7.3 0.3 9.8

Dump ship's entire track history